Time;durP1;ratioP1;P1;durP2;ratioP2;P2;SDS_P1;SDS_P2;PMS_P1;PMS_P2;Temp;Humidity;BMP_temperature;BMP_pressure;BME280_temperature;BME280_humidity;BME280_pressure;Samples;Min_cycle;Max_cycle;Signal;HPM_P1;HPM_P2
2022/08/18 00:02:06;;;;;;;8.70;7.40;;;;;;;20.05;94.11;156519.06;4990933;28;20537;-86
2022/08/18 00:04:34;;;;;;;7.90;7.20;;;;;;;20.01;95.21;156507.34;4974626;28;20476;-86
2022/08/18 00:07:01;;;;;;;8.23;6.77;;;;;;;20.04;94.58;156515.19;4981504;28;20453;-86
2022/08/18 00:09:28;;;;;;;8.63;7.50;;;;;;;20.11;94.60;156533.41;4971657;28;21030;-86
2022/08/18 00:11:56;;;;;;;9.07;7.70;;;;;;;20.06;94.60;156520.38;4983786;28;20466;-86
2022/08/18 00:14:23;;;;;;;8.13;7.43;;;;;;;20.03;94.68;156512.53;4974329;28;21063;-86
2022/08/18 00:16:52;;;;;;;8.20;7.20;;;;;;;20.00;94.80;156504.72;4990577;28;20445;-87
2022/08/18 00:19:19;;;;;;;8.10;7.30;;;;;;;20.02;95.13;156509.91;4974412;28;20434;-87
2022/08/18 00:21:46;;;;;;;7.80;7.00;;;;;;;19.99;95.09;156503.41;4992854;28;20532;-87
2022/08/18 00:24:12;;;;;;;7.90;7.30;;;;;;;20.03;95.77;156512.53;4989345;28;20897;-88
2022/08/18 00:26:39;;;;;;;8.23;7.33;;;;;;;20.05;95.24;156519.06;4990282;28;20445;-88
2022/08/18 00:29:08;;;;;;;7.67;6.93;;;;;;;20.00;94.68;156504.72;4993541;28;20799;-88
2022/08/18 00:31:34;;;;;;;7.40;6.60;;;;;;;20.05;93.63;156519.06;4982558;28;21031;-88
2022/08/18 00:34:01;;;;;;;7.57;6.87;;;;;;;20.01;93.10;156507.34;4988291;28;20456;-89
2022/08/18 00:36:30;;;;;;;7.40;6.70;;;;;;;20.03;93.49;156513.88;4978228;28;20484;-89
2022/08/18 00:38:57;;;;;;;7.30;6.23;;;;;;;20.02;93.54;156511.22;4977355;28;20438;-89
2022/08/18 00:41:25;;;;;;;7.93;7.13;;;;;;;20.01;93.17;156507.34;4976722;28;20492;-89
2022/08/18 00:43:53;;;;;;;7.70;6.90;;;;;;;20.01;93.08;156508.59;4994219;28;20452;-88
2022/08/18 00:46:24;;;;;;;7.37;6.67;;;;;;;19.98;93.56;156500.81;4976468;28;20445;-88
2022/08/18 00:48:52;;;;;;;7.37;6.67;;;;;;;19.93;93.81;156486.47;4994045;28;20773;-89
2022/08/18 00:51:22;;;;;;;7.07;6.47;;;;;;;19.94;93.06;156489.06;4972463;28;20482;-88
2022/08/18 00:53:52;;;;;;;7.20;6.47;;;;;;;19.92;93.42;156483.84;4986679;28;20445;-88
2022/08/18 00:56:32;;;;;;;7.20;6.27;;;;;;;19.90;94.15;156478.66;4975772;28;20445;-87
2022/08/18 00:59:03;;;;;;;7.87;7.13;;;;;;;19.90;92.87;156478.66;4975429;28;20440;-87
2022/08/18 01:01:33;;;;;;;6.07;5.50;;;;;;;19.86;93.47;156468.19;4974947;28;20453;-87
2022/08/18 01:04:04;;;;;;;6.97;6.27;;;;;;;19.86;94.81;156469.50;4967351;28;20465;-87
2022/08/18 01:06:38;;;;;;;6.80;6.20;;;;;;;19.88;93.75;156473.44;4974350;28;20438;-87
2022/08/18 01:09:04;;;;;;;6.57;5.97;;;;;;;19.94;93.44;156489.06;4973994;28;20435;-87
2022/08/18 01:11:32;;;;;;;6.97;6.37;;;;;;;19.92;93.27;156483.84;4964317;28;20563;-88
2022/08/18 01:13:59;;;;;;;11.90;7.60;;;;;;;19.82;94.94;156457.78;4992125;28;20453;-88
2022/08/18 01:22:01;;;;;;;8.53;7.63;;;;;;;19.72;96.88;156431.72;4993101;28;20433;-88
2022/08/18 01:27:17;;;;;;;6.50;6.00;;;;;;;19.73;98.07;156434.28;4993569;28;20437;-88
2022/08/18 01:29:44;;;;;;;7.63;6.70;;;;;;;19.72;98.66;156433.03;4975877;28;20445;-88
2022/08/18 01:32:15;;;;;;;8.23;7.43;;;;;;;19.72;98.92;156431.72;4975734;28;20477;-88
2022/08/18 01:34:43;;;;;;;7.40;6.70;;;;;;;19.62;98.27;156405.66;4975669;28;20417;-88
2022/08/18 01:37:10;;;;;;;7.20;6.50;;;;;;;19.64;97.89;156412.16;4985104;28;20429;-88
2022/08/18 01:39:38;;;;;;;7.50;6.70;;;;;;;19.71;98.01;156429.09;4976576;28;20537;-88
2022/08/18 01:42:05;;;;;;;7.60;6.90;;;;;;;19.74;96.90;156436.91;4979690;28;20889;-88
2022/08/18 01:44:32;;;;;;;9.40;6.43;;;;;;;19.75;96.51;156440.81;4974628;28;20443;-88
2022/08/18 01:46:59;;;;;;;6.97;6.30;;;;;;;19.77;96.49;156446.06;4960347;28;20500;-88
2022/08/18 01:49:27;;;;;;;7.40;6.60;;;;;;;19.80;96.58;156453.84;4954672;28;20956;-88
2022/08/18 01:51:54;;;;;;;8.17;7.20;;;;;;;19.83;96.18;156460.41;4995498;28;20811;-88
2022/08/18 01:54:21;;;;;;;7.50;6.80;;;;;;;19.82;95.24;156457.78;4979331;28;20441;-88
2022/08/18 01:56:52;;;;;;;8.17;6.20;;;;;;;19.81;95.08;156456.47;4977018;28;20448;-88
2022/08/18 01:59:18;;;;;;;7.20;6.50;;;;;;;19.74;95.93;156436.91;5008568;28;20947;-88
2022/08/18 02:01:46;;;;;;;6.97;6.33;;;;;;;19.65;96.11;156414.75;4996780;28;20473;-88
2022/08/18 02:04:14;;;;;;;7.17;6.53;;;;;;;19.68;95.96;156421.25;4979225;28;20425;-87
2022/08/18 02:06:41;;;;;;;8.30;7.50;;;;;;;19.76;95.52;156443.44;4979074;28;20491;-89
2022/08/18 02:09:08;;;;;;;8.03;7.33;;;;;;;19.77;95.61;156446.06;4996408;28;20465;-87
2022/08/18 02:11:35;;;;;;;7.00;6.30;;;;;;;19.83;95.27;156460.41;4978713;28;20575;-87
2022/08/18 02:14:04;;;;;;;7.97;7.17;;;;;;;19.85;94.86;156465.63;4989829;28;20456;-88
2022/08/18 02:16:32;;;;;;;8.80;6.63;;;;;;;19.82;95.04;156457.78;4959607;28;20456;-87
2022/08/18 02:18:59;;;;;;;7.30;6.60;;;;;;;19.75;95.13;156439.56;4959279;28;20443;-88
2022/08/18 02:21:25;;;;;;;6.60;6.00;;;;;;;19.74;94.73;156438.22;4976694;28;20494;-87
2022/08/18 02:26:30;;;;;;;7.23;6.20;;;;;;;19.78;93.49;156447.31;4966928;28;20647;-76
2022/08/18 02:28:56;;;;;;;10.23;7.00;;;;;;;19.77;93.64;156446.06;4975525;28;20500;-76
2022/08/18 02:31:25;;;;;;;7.50;6.80;;;;;;;19.76;93.58;156443.44;4976962;28;20452;-76
2022/08/18 02:33:52;;;;;;;6.80;6.10;;;;;;;19.72;93.67;156433.03;4960390;28;20469;-76
2022/08/18 02:36:20;;;;;;;7.37;6.77;;;;;;;19.71;93.61;156429.09;4975828;28;20450;-75
2022/08/18 02:38:47;;;;;;;7.73;7.03;;;;;;;19.67;93.82;156419.94;4973396;28;20458;-75
2022/08/18 02:41:14;;;;;;;7.50;6.73;;;;;;;19.63;94.26;156408.22;4970249;28;20968;-75
2022/08/18 02:43:42;;;;;;;7.03;6.43;;;;;;;19.63;94.03;156408.22;4973289;28;20906;-75
2022/08/18 02:46:09;;;;;;;7.20;6.53;;;;;;;19.65;94.24;156413.44;4956301;28;20446;-75
2022/08/18 02:48:37;;;;;;;6.60;6.00;;;;;;;19.67;93.43;156418.69;4956663;28;20531;-75
2022/08/18 02:51:07;;;;;;;6.50;5.90;;;;;;;19.66;93.32;156416.06;4965521;28;20497;-75
2022/08/18 02:53:35;;;;;;;7.53;6.60;;;;;;;19.68;92.59;156422.56;4969144;28;20823;-77
2022/08/18 02:56:15;;;;;;;7.43;6.73;;;;;;;19.65;92.81;156413.44;4957132;28;20880;-77
2022/08/18 02:58:42;;;;;;;7.40;6.20;;;;;;;19.67;92.68;156418.69;4968626;28;20459;-77
2022/08/18 03:01:08;;;;;;;6.50;5.90;;;;;;;19.62;93.02;156405.66;4954387;28;20436;-77
2022/08/18 03:03:36;;;;;;;7.27;6.67;;;;;;;19.54;93.98;156384.78;4953287;29;20542;-77
2022/08/18 03:06:03;;;;;;;6.67;5.97;;;;;;;19.48;94.49;156369.13;4952773;29;20443;-77
2022/08/18 03:08:31;;;;;;;6.70;6.10;;;;;;;19.47;94.64;156366.50;4962872;28;20498;-77
2022/08/18 03:10:58;;;;;;;7.20;6.50;;;;;;;19.41;94.73;156352.16;4957185;28;20459;-77
2022/08/18 03:13:24;;;;;;;6.90;6.20;;;;;;;19.40;94.76;156350.91;4974292;28;20543;-75
2022/08/18 03:15:51;;;;;;;7.30;6.70;;;;;;;19.36;95.06;156340.41;4956430;28;20443;-75
2022/08/18 03:18:18;;;;;;;7.00;6.40;;;;;;;19.38;95.29;156345.66;4972837;28;20544;-77
2022/08/18 03:20:46;;;;;;;7.57;6.90;;;;;;;19.25;95.55;156310.41;4959037;28;20485;-77
2022/08/18 03:23:13;;;;;;;6.73;5.87;;;;;;;19.16;95.89;156288.28;4992904;28;20425;-77
2022/08/18 03:25:44;;;;;;;7.10;6.40;;;;;;;19.17;95.40;156290.88;4974916;28;20473;-78
2022/08/18 03:28:12;;;;;;;7.37;6.67;;;;;;;19.19;95.15;156294.81;4970524;28;20553;-77
2022/08/18 03:30:38;;;;;;;6.80;6.20;;;;;;;19.18;96.50;156293.50;4956438;28;20445;-77
2022/08/18 03:33:05;;;;;;;7.20;6.50;;;;;;;19.11;97.74;156273.94;4973191;28;20466;-77
2022/08/18 03:35:34;;;;;;;7.10;6.40;;;;;;;19.10;97.62;156271.31;4956224;28;20454;-77
2022/08/18 03:38:03;;;;;;;7.70;7.00;;;;;;;19.07;97.50;156264.81;4966172;28;20871;-77
2022/08/18 03:40:29;;;;;;;9.20;7.00;;;;;;;19.09;97.54;156270.00;4971483;28;20534;-77
2022/08/18 03:42:56;;;;;;;6.97;6.20;;;;;;;19.07;98.67;156264.81;4955650;28;20498;-77
2022/08/18 03:45:23;;;;;;;7.53;6.83;;;;;;;19.02;99.05;156251.78;4971300;28;20553;-75
2022/08/18 03:47:51;;;;;;;7.63;6.83;;;;;;;19.00;99.13;156246.59;4958641;28;20827;-75
2022/08/18 03:50:18;;;;;;;7.00;6.37;;;;;;;19.04;98.41;156256.97;4974062;28;20493;-77
2022/08/18 03:52:47;;;;;;;7.67;6.93;;;;;;;19.02;97.31;156251.78;4960491;28;20470;-75
2022/08/18 03:55:16;;;;;;;7.67;6.97;;;;;;;18.96;97.41;156236.13;4956018;28;20545;-75
2022/08/18 03:57:42;;;;;;;7.47;6.63;;;;;;;18.95;96.75;156232.25;4972371;28;20474;-75
2022/08/18 04:00:11;;;;;;;7.33;6.63;;;;;;;18.97;96.38;156238.75;4971774;28;20482;-75
2022/08/18 04:02:37;;;;;;;7.17;6.53;;;;;;;19.00;95.04;156246.59;4970859;28;20485;-75
2022/08/18 04:05:05;;;;;;;7.50;6.70;;;;;;;19.02;95.83;156250.47;4971664;28;20558;-76
2022/08/18 04:07:33;;;;;;;8.20;7.40;;;;;;;18.97;96.18;156238.75;4970510;28;20464;-76
2022/08/18 04:09:59;;;;;;;7.47;6.77;;;;;;;18.98;96.17;156241.38;4961073;28;20443;-76
2022/08/18 04:12:29;;;;;;;7.37;6.67;;;;;;;18.96;96.87;156236.13;4957667;28;20541;-75
2022/08/18 04:14:55;;;;;;;7.13;6.50;;;;;;;18.99;96.98;156242.66;4969297;28;20455;-75
2022/08/18 04:17:23;;;;;;;7.57;6.87;;;;;;;18.99;97.31;156242.66;4972764;28;20518;-75
2022/08/18 04:19:50;;;;;;;7.53;6.83;;;;;;;18.98;97.08;156241.38;4955257;28;20462;-75
2022/08/18 04:22:17;;;;;;;7.80;7.00;;;;;;;18.99;96.88;156243.97;4973065;28;20466;-75
2022/08/18 04:24:45;;;;;;;8.40;6.87;;;;;;;18.99;96.68;156243.97;4978542;28;20520;-75
2022/08/18 04:27:12;;;;;;;7.30;6.60;;;;;;;18.98;97.13;156240.06;4985300;28;20457;-75
2022/08/18 04:29:40;;;;;;;8.00;7.20;;;;;;;18.97;97.52;156238.75;4988687;28;20765;-75
2022/08/18 04:32:07;;;;;;;7.67;6.97;;;;;;;18.99;97.65;156243.97;4967484;28;20446;-75
2022/08/18 04:34:34;;;;;;;7.80;7.03;;;;;;;18.97;98.20;156238.75;4971598;28;20450;-75
2022/08/18 04:37:01;;;;;;;7.90;7.10;;;;;;;18.94;98.88;156229.63;4971458;28;20538;-75
2022/08/18 04:39:29;;;;;;;7.67;6.90;;;;;;;18.96;98.87;156236.13;4964158;28;20493;-75
2022/08/18 04:41:56;;;;;;;7.97;7.27;;;;;;;18.96;99.26;156234.81;4973656;28;20960;-75
2022/08/18 04:44:23;;;;;;;7.80;7.10;;;;;;;18.97;98.90;156237.44;4952285;28;20431;-76
2022/08/18 04:46:53;;;;;;;8.10;7.30;;;;;;;18.99;99.28;156242.66;4954845;28;20447;-76
2022/08/18 04:49:22;;;;;;;8.47;7.20;;;;;;;19.00;99.31;156245.28;4953842;28;20458;-76
2022/08/18 04:54:36;;;;;;;7.43;6.73;;;;;;;19.01;99.31;156249.16;4970630;28;20441;-76
2022/08/18 04:57:07;;;;;;;7.60;6.90;;;;;;;18.99;99.50;156243.97;4972761;28;20427;-76
2022/08/18 04:59:35;;;;;;;8.10;7.30;;;;;;;19.02;99.86;156250.47;4952501;28;20454;-76
2022/08/18 05:02:07;;;;;;;8.80;7.97;;;;;;;19.06;99.62;156262.19;4955917;28;20514;-76
2022/08/18 05:04:36;;;;;;;8.33;7.63;;;;;;;19.10;99.76;156271.31;4936117;29;20874;-76
2022/08/18 05:07:04;;;;;;;8.30;7.50;;;;;;;19.20;99.08;156298.69;4953344;29;20531;-75
2022/08/18 05:09:31;;;;;;;8.50;7.53;;;;;;;19.29;98.53;156320.84;4937886;28;20447;-75
2022/08/18 05:11:58;;;;;;;8.87;8.00;;;;;;;19.30;98.46;156324.75;4952186;28;20546;-76
2022/08/18 05:14:25;;;;;;;9.20;8.30;;;;;;;19.35;97.86;156337.78;4973560;28;20636;-75
2022/08/18 05:16:51;;;;;;;8.83;7.90;;;;;;;19.34;98.40;156335.19;4963568;28;20832;-75
2022/08/18 05:19:21;;;;;;;8.30;7.50;;;;;;;19.36;98.54;156340.41;4957486;28;20941;-76
2022/08/18 05:21:48;;;;;;;7.50;6.83;;;;;;;19.46;98.96;156363.94;4939811;29;20447;-76
2022/08/18 05:24:15;;;;;;;9.07;8.27;;;;;;;19.60;98.03;156400.41;4955445;29;20557;-76
2022/08/18 05:26:42;;;;;;;7.57;6.83;;;;;;;19.81;97.46;156455.16;4939851;29;20446;-75
2022/08/18 05:29:09;;;;;;;8.10;7.40;;;;;;;19.99;95.70;156502.09;4965755;28;20517;-75
2022/08/18 05:31:35;;;;;;;8.40;7.47;;;;;;;20.17;94.62;156549.06;4958320;28;20533;-75
2022/08/18 05:34:02;;;;;;;8.53;7.73;;;;;;;20.36;94.05;156598.66;4976570;28;21173;-76
2022/08/18 05:36:49;;;;;;;8.20;7.40;;;;;;;20.49;92.66;156631.28;4977621;28;20442;-76
2022/08/18 05:39:21;;;;;;;8.40;7.70;;;;;;;20.68;92.30;156679.56;4971618;28;20490;-76
2022/08/18 05:41:51;;;;;;;8.63;7.73;;;;;;;20.79;91.15;156708.22;4973257;28;20450;-76
2022/08/18 05:44:20;;;;;;;7.90;7.17;;;;;;;20.93;91.06;156744.78;4952380;28;20917;-76
2022/08/18 05:46:51;;;;;;;7.47;6.87;;;;;;;21.20;90.23;156816.63;4958724;28;20434;-76
2022/08/18 05:49:18;;;;;;;8.70;7.90;;;;;;;21.33;89.44;156849.25;4943539;28;20460;-76
2022/08/18 05:51:48;;;;;;;8.30;7.50;;;;;;;21.32;87.57;156846.63;4958587;28;20800;-76
2022/08/18 05:57:04;;;;;;;8.43;7.60;;;;;;;21.30;86.20;156840.09;4959102;28;20426;-87
2022/08/18 05:59:33;;;;;;;7.90;7.20;;;;;;;21.13;87.56;156797.00;4972255;28;20821;-88
2022/08/18 06:02:04;;;;;;;8.20;7.40;;;;;;;21.00;88.42;156764.34;4975354;28;20454;-87
2022/08/18 06:04:43;;;;;;;8.03;7.33;;;;;;;21.04;86.58;156773.50;4975332;28;20777;-87
2022/08/18 06:07:14;;;;;;;8.10;7.30;;;;;;;21.12;84.98;156794.44;4966756;28;20454;-88
2022/08/18 06:09:47;;;;;;;8.30;7.50;;;;;;;21.15;85.06;156802.25;4972627;28;20531;-88
2022/08/18 06:12:21;;;;;;;8.67;7.77;;;;;;;21.18;86.95;156810.09;4975406;28;21044;-87
2022/08/18 06:14:48;;;;;;;8.30;7.53;;;;;;;21.20;83.68;156815.31;4974821;28;20446;-88
2022/08/18 06:17:30;;;;;;;8.13;7.40;;;;;;;21.20;85.71;156816.63;4974955;28;20433;-87
2022/08/18 06:20:03;;;;;;;10.80;8.10;;;;;;;21.14;87.52;156800.94;4974922;28;20517;-87
2022/08/18 06:22:38;;;;;;;9.13;7.97;;;;;;;20.72;90.18;156689.97;4973537;28;20447;-87
2022/08/18 06:25:11;;;;;;;8.30;7.60;;;;;;;21.12;88.04;156794.44;4959120;28;20584;-74
2022/08/18 06:27:41;;;;;;;8.40;7.17;;;;;;;20.89;86.90;156735.63;4974819;28;20415;-77
2022/08/18 06:30:13;;;;;;;8.47;7.70;;;;;;;20.81;87.06;156713.47;4955568;28;20461;-75
2022/08/18 06:33:02;;;;;;;8.07;7.27;;;;;;;21.04;86.08;156773.50;4973615;28;20454;-89
2022/08/18 06:35:34;;;;;;;8.13;7.17;;;;;;;20.93;86.03;156744.78;4969132;28;20450;-88
2022/08/18 06:41:01;;;;;;;8.33;7.60;;;;;;;21.11;83.72;156791.81;4973482;28;20513;-88
2022/08/18 06:43:31;;;;;;;10.40;8.23;;;;;;;21.10;83.73;156789.22;4974668;28;20786;-87
2022/08/18 06:45:57;;;;;;;8.87;8.07;;;;;;;21.13;85.83;156797.00;4974827;28;20458;-87
2022/08/18 06:48:29;;;;;;;8.90;8.10;;;;;;;21.15;83.94;156802.25;4957963;28;20443;-87
2022/08/18 06:50:59;;;;;;;8.47;7.67;;;;;;;21.22;84.74;156820.53;4966125;28;20460;-87
2022/08/18 06:53:50;;;;;;;8.70;7.80;;;;;;;21.31;86.55;156842.72;4973916;28;20508;-87
2022/08/18 06:56:22;;;;;;;8.73;7.73;;;;;;;21.43;87.34;156874.03;4975501;28;20425;-87
2022/08/18 06:58:51;;;;;;;9.20;8.30;;;;;;;21.28;85.82;156836.19;4942268;28;20450;-88
2022/08/18 07:01:18;;;;;;;9.73;8.73;;;;;;;21.33;87.27;156849.25;4957979;28;20435;-87
2022/08/18 07:03:50;;;;;;;10.50;8.90;;;;;;;21.27;88.96;156833.56;4957230;28;20455;-88
2022/08/18 07:06:30;;;;;;;10.40;9.40;;;;;;;21.16;89.61;156804.84;4974265;28;20446;-88
2022/08/18 07:09:21;;;;;;;9.47;8.57;;;;;;;21.10;90.73;156789.22;4961683;28;20940;-88
2022/08/18 07:12:02;;;;;;;9.00;8.10;;;;;;;21.34;88.40;156850.56;4956578;28;20424;-88
2022/08/18 07:14:29;;;;;;;8.87;7.40;;;;;;;21.28;87.68;156836.19;4959225;28;20584;-88
2022/08/18 07:17:10;;;;;;;9.50;8.60;;;;;;;21.14;86.30;156799.63;4975919;28;20452;-88
2022/08/18 07:19:37;;;;;;;10.00;8.97;;;;;;;21.07;87.32;156781.38;4974362;28;20855;-88
2022/08/18 07:22:06;;;;;;;9.47;8.57;;;;;;;21.01;86.88;156766.97;4957895;28;20800;-87
2022/08/18 07:24:38;;;;;;;10.33;9.43;;;;;;;21.09;86.45;156786.59;4961073;28;20484;-89
2022/08/18 07:27:08;;;;;;;10.17;9.27;;;;;;;21.08;86.12;156783.97;4969043;28;20435;-88
2022/08/18 07:29:37;;;;;;;9.57;8.40;;;;;;;21.13;85.53;156797.00;4958058;28;20470;-88
2022/08/18 07:32:09;;;;;;;8.70;8.00;;;;;;;21.21;87.45;156817.91;4975404;28;20481;-88
2022/08/18 07:34:39;;;;;;;9.17;8.37;;;;;;;21.20;86.12;156815.31;4957956;28;20568;-88
2022/08/18 07:37:11;;;;;;;10.13;9.13;;;;;;;21.20;88.59;156815.31;4957203;28;20435;-88
2022/08/18 07:39:45;;;;;;;9.43;8.53;;;;;;;21.22;90.16;156821.84;4957655;28;21008;-89
2022/08/18 07:42:17;;;;;;;9.43;8.53;;;;;;;21.25;90.25;156828.34;4975673;28;20839;-88
2022/08/18 07:44:48;;;;;;;10.63;9.53;;;;;;;21.27;89.30;156833.56;4957732;28;20933;-88
2022/08/18 07:47:17;;;;;;;9.60;8.70;;;;;;;21.14;90.92;156799.63;4975739;28;20453;-88
2022/08/18 07:49:46;;;;;;;10.50;9.40;;;;;;;21.13;89.94;156797.00;4972450;28;20460;-89
2022/08/18 07:52:17;;;;;;;9.73;8.90;;;;;;;21.07;89.71;156782.69;4965837;28;20945;-89
2022/08/18 07:54:50;;;;;;;10.77;9.67;;;;;;;20.98;90.53;156757.81;4975089;28;20474;-89
2022/08/18 07:57:24;;;;;;;10.00;9.00;;;;;;;20.91;91.34;156739.56;4974138;28;20533;-89
2022/08/18 08:00:01;;;;;;;15.17;9.60;;;;;;;20.91;91.92;156740.88;4975792;28;20453;-89
2022/08/18 08:02:49;;;;;;;9.70;8.80;;;;;;;20.86;92.13;156726.53;4974150;28;20949;-89
2022/08/18 08:05:33;;;;;;;10.77;9.50;;;;;;;20.88;91.63;156731.75;4976509;28;20572;-89
2022/08/18 08:08:05;;;;;;;10.00;8.70;;;;;;;20.98;90.64;156759.13;4982701;28;20527;-90
2022/08/18 08:10:38;;;;;;;10.50;9.40;;;;;;;21.09;90.06;156787.91;4957122;28;20534;-89
2022/08/18 08:13:17;;;;;;;10.33;9.33;;;;;;;20.91;91.01;156740.88;4957354;28;20811;-90
2022/08/18 08:15:50;;;;;;;10.43;9.50;;;;;;;20.85;91.54;156723.91;4974657;28;20431;-90
2022/08/18 08:18:21;;;;;;;9.83;8.90;;;;;;;20.81;91.01;156713.47;4974842;28;20419;-89
2022/08/18 08:20:51;;;;;;;10.70;9.60;;;;;;;20.74;92.44;156695.19;4957024;28;20521;-89
2022/08/18 08:23:26;;;;;;;10.20;9.30;;;;;;;20.81;92.57;156713.47;4957122;28;20506;-89
2022/08/18 08:26:16;;;;;;;11.33;9.90;;;;;;;20.75;92.17;156697.81;4968802;28;20486;-90
2022/08/18 08:28:46;;;;;;;9.47;8.60;;;;;;;20.68;92.93;156679.56;4955526;29;20535;-89
2022/08/18 08:31:19;;;;;;;10.83;9.73;;;;;;;20.76;92.81;156700.44;4967484;28;20442;-90
2022/08/18 08:33:49;;;;;;;11.87;10.70;;;;;;;20.65;92.60;156674.31;4976450;28;20591;-89
2022/08/18 08:36:19;;;;;;;10.30;8.90;;;;;;;20.56;94.56;156650.84;4976449;28;21016;-89
2022/08/18 08:38:48;;;;;;;10.23;9.23;;;;;;;20.54;94.56;156645.59;4974744;28;20527;-89
2022/08/18 08:41:20;;;;;;;11.50;10.50;;;;;;;20.53;94.67;156643.03;4956893;28;20438;-89
2022/08/18 08:43:52;;;;;;;10.83;9.83;;;;;;;20.53;94.21;156643.03;4960452;28;20458;-89
2022/08/18 08:46:21;;;;;;;10.70;9.57;;;;;;;20.68;93.78;156679.56;4972976;28;20899;-89
2022/08/18 08:48:53;;;;;;;11.23;9.40;;;;;;;20.80;93.44;156712.16;4956150;28;20486;-89
2022/08/18 08:51:29;;;;;;;10.37;9.47;;;;;;;20.92;93.40;156743.47;4971448;28;20442;-89
2022/08/18 08:53:59;;;;;;;11.10;9.30;;;;;;;21.08;92.54;156783.97;4956458;28;20841;-89
2022/08/18 08:56:30;;;;;;;10.00;9.03;;;;;;;21.17;92.21;156808.78;4954492;28;20475;-89
2022/08/18 08:58:59;;;;;;;11.60;10.47;;;;;;;21.10;91.39;156790.50;4953383;29;20451;-89
2022/08/18 09:01:30;;;;;;;10.83;9.73;;;;;;;21.11;91.83;156791.81;4958981;28;20513;-88
2022/08/18 09:04:03;;;;;;;9.70;8.80;;;;;;;21.35;91.86;156854.44;4988606;28;20986;-88
2022/08/18 09:06:39;;;;;;;9.70;8.80;;;;;;;21.43;90.09;156875.34;4989462;28;20490;-88
2022/08/18 09:09:21;;;;;;;11.37;10.33;;;;;;;21.33;89.41;156849.25;4967945;28;20446;-89
2022/08/18 09:12:05;;;;;;;10.90;9.80;;;;;;;21.47;88.48;156884.50;4963740;28;20447;-88
2022/08/18 09:15:12;;;;;;;10.90;9.70;;;;;;;21.73;86.83;156952.38;4937664;29;20477;-89
2022/08/18 09:17:49;;;;;;;12.37;11.07;;;;;;;21.92;85.61;157000.72;4899148;29;20600;-89
2022/08/18 09:20:35;;;;;;;10.97;9.87;;;;;;;21.93;83.92;157003.31;4914523;29;20537;-89
2022/08/18 09:23:07;;;;;;;11.50;9.63;;;;;;;22.20;84.29;157073.84;4942131;29;20795;-88
2022/08/18 09:25:46;;;;;;;12.23;11.03;;;;;;;22.17;82.92;157066.00;4954397;29;20471;-88
2022/08/18 09:28:16;;;;;;;12.50;11.40;;;;;;;22.05;81.85;157034.69;4937214;29;20435;-88
2022/08/18 09:31:14;;;;;;;11.73;10.63;;;;;;;22.18;82.90;157068.63;4966598;28;20589;-89
2022/08/18 09:34:07;;;;;;;10.60;9.70;;;;;;;22.47;81.67;157144.38;4990331;28;20481;-89
2022/08/18 09:36:41;;;;;;;13.53;9.83;;;;;;;22.61;78.82;157180.94;4964849;28;20548;-88
2022/08/18 09:42:00;;;;;;;10.47;9.37;;;;;;;22.32;79.86;157105.16;4955557;28;20446;-88
2022/08/18 09:45:01;;;;;;;10.40;9.40;;;;;;;22.62;81.05;157183.56;4956018;28;20980;-88
2022/08/18 09:48:14;;;;;;;10.13;9.23;;;;;;;22.94;78.68;157267.25;4964950;28;20889;-88
2022/08/18 09:51:19;;;;;;;9.20;8.40;;;;;;;23.14;76.84;157316.91;4967227;28;20929;-87
2022/08/18 09:54:08;;;;;;;10.93;9.83;;;;;;;23.17;76.30;157326.00;4971746;28;20536;-88
2022/08/18 09:57:16;;;;;;;11.60;9.03;;;;;;;23.11;76.20;157309.06;4951250;28;20545;-88
2022/08/18 10:00:19;;;;;;;9.77;8.83;;;;;;;22.98;77.81;157277.66;4952636;28;20473;-88
2022/08/18 10:03:12;;;;;;;10.03;9.13;;;;;;;22.91;76.84;157259.38;4970651;28;20548;-88
2022/08/18 10:05:41;;;;;;;11.20;10.10;;;;;;;23.03;76.94;157290.72;4974582;28;20914;-88
2022/08/18 10:08:32;;;;;;;11.10;10.10;;;;;;;23.30;76.98;157358.72;4951324;28;20466;-87
2022/08/18 10:11:07;;;;;;;11.93;9.93;;;;;;;23.37;77.31;157377.06;4973600;28;20537;-88
2022/08/18 10:13:36;;;;;;;12.40;11.20;;;;;;;23.36;75.16;157374.38;4974427;28;20545;-88
2022/08/18 10:16:10;;;;;;;11.90;10.87;;;;;;;23.12;76.07;157311.63;4954504;28;20466;-87
2022/08/18 10:18:49;;;;;;;11.17;10.17;;;;;;;23.50;76.00;157411.03;4973296;28;20449;-87
2022/08/18 10:21:19;;;;;;;12.60;11.40;;;;;;;23.59;75.31;157434.53;4955635;28;20450;-89
2022/08/18 10:23:55;;;;;;;11.83;10.70;;;;;;;23.48;75.54;157405.81;4972350;28;20801;-88
2022/08/18 10:27:11;;;;;;;12.03;10.83;;;;;;;23.42;76.70;157390.13;4956166;28;20886;-89
2022/08/18 10:29:59;;;;;;;11.50;10.50;;;;;;;23.49;77.35;157409.72;4958244;28;20550;-88
2022/08/18 10:32:44;;;;;;;11.00;10.00;;;;;;;23.76;77.41;157479.00;4952070;28;20453;-89
2022/08/18 10:35:50;;;;;;;11.93;10.93;;;;;;;23.71;75.66;157465.94;4971265;28;20502;-89
2022/08/18 10:38:22;;;;;;;11.77;10.67;;;;;;;23.35;77.04;157373.06;4963826;28;20481;-87
2022/08/18 10:40:58;;;;;;;14.43;12.97;;;;;;;23.24;77.47;157344.34;4974641;28;20474;-87
2022/08/18 10:43:32;;;;;;;11.90;10.77;;;;;;;23.27;76.95;157352.16;4976083;28;20446;-87
2022/08/18 10:45:59;;;;;;;11.83;10.73;;;;;;;23.23;77.58;157340.41;4966877;28;20871;-87
2022/08/18 10:48:29;;;;;;;13.60;12.37;;;;;;;23.27;76.80;157350.88;4972865;28;20466;-87
2022/08/18 10:51:01;;;;;;;11.20;10.20;;;;;;;23.35;76.17;157371.78;4968410;28;20438;-88
2022/08/18 10:53:34;;;;;;;12.30;11.20;;;;;;;23.46;73.84;157401.88;4968555;28;20490;-88
2022/08/18 10:56:05;;;;;;;12.47;11.37;;;;;;;23.55;74.21;157424.09;4956290;28;20466;-88
2022/08/18 10:58:56;;;;;;;12.13;10.97;;;;;;;23.60;74.55;157438.50;4965817;28;20481;-88
2022/08/18 11:01:42;;;;;;;11.60;10.50;;;;;;;23.77;73.76;157480.31;4973614;28;20451;-89
2022/08/18 11:04:20;;;;;;;11.87;10.83;;;;;;;23.74;74.33;157473.78;4952126;28;20446;-89
2022/08/18 11:06:49;;;;;;;12.47;11.27;;;;;;;23.77;72.38;157481.66;4971516;28;20533;-89
2022/08/18 11:09:23;;;;;;;14.03;10.60;;;;;;;23.58;72.70;157431.97;4956570;28;20462;-86
2022/08/18 11:11:52;;;;;;;11.33;10.20;;;;;;;23.53;71.91;157418.88;4972180;28;20938;-87
2022/08/18 11:14:50;;;;;;;11.90;10.70;;;;;;;23.61;71.80;157439.81;4965695;28;20524;-87
2022/08/18 11:17:26;;;;;;;10.83;9.93;;;;;;;23.54;72.31;157422.78;4970943;28;20898;-87
2022/08/18 11:19:53;;;;;;;11.60;10.27;;;;;;;23.75;73.54;157475.13;4951661;28;20509;-88
2022/08/18 11:22:24;;;;;;;12.90;11.70;;;;;;;23.94;71.99;157526.06;4975046;28;20470;-88
2022/08/18 11:24:51;;;;;;;12.13;11.03;;;;;;;24.03;71.93;157549.63;4952438;28;20573;-88
2022/08/18 11:27:22;;;;;;;11.50;10.40;;;;;;;23.98;72.05;157536.56;4951837;28;20467;-87
2022/08/18 11:29:50;;;;;;;12.00;10.90;;;;;;;23.95;71.21;157528.69;4953382;28;20485;-88
2022/08/18 11:32:20;;;;;;;12.17;11.07;;;;;;;24.08;71.90;157562.75;4968611;28;20513;-87
2022/08/18 11:34:50;;;;;;;12.40;11.20;;;;;;;24.05;70.60;157554.84;4967922;28;20510;-87
2022/08/18 11:37:23;;;;;;;15.13;13.73;;;;;;;24.10;71.40;157567.97;4967752;28;20955;-87
2022/08/18 11:39:51;;;;;;;13.03;11.13;;;;;;;24.15;70.99;157581.03;4974319;28;20458;-88
2022/08/18 11:42:26;;;;;;;13.23;12.03;;;;;;;24.04;69.92;157550.94;4957531;28;20992;-87
2022/08/18 11:44:54;;;;;;;13.30;12.10;;;;;;;23.86;71.27;157503.84;4978875;28;20457;-88
2022/08/18 11:47:22;;;;;;;12.50;11.40;;;;;;;24.01;71.65;157543.09;4969274;28;20453;-89
2022/08/18 11:49:53;;;;;;;13.43;12.23;;;;;;;24.04;70.34;157550.94;4964952;28;20450;-88
2022/08/18 11:52:24;;;;;;;13.67;12.43;;;;;;;24.04;70.67;157552.22;4974697;28;20541;-88
2022/08/18 11:54:51;;;;;;;12.80;11.60;;;;;;;24.14;69.88;157577.13;4957555;28;20500;-88
2022/08/18 11:57:46;;;;;;;12.93;11.73;;;;;;;24.05;70.48;157554.84;4937839;29;20451;-88
2022/08/18 12:00:42;;;;;;;13.53;12.40;;;;;;;24.26;70.00;157608.50;4948662;28;20495;-89
2022/08/18 12:03:16;;;;;;;14.40;11.93;;;;;;;24.20;69.91;157592.78;4971487;28;20494;-89
2022/08/18 12:05:45;;;;;;;14.40;12.93;;;;;;;23.81;70.22;157490.75;4957171;28;20454;-88
2022/08/18 12:08:28;;;;;;;15.23;13.73;;;;;;;23.74;70.73;157473.78;4973442;28;20501;-88